United Spirit — ELYB2 — position and weather

sailwx.info

Track history (hours):
 
Tides and Currents Weather Stations Pressure Air Temp Water Temp Dewpoint Dewpoint Depression Visibility Wind Speed Wind Dir Waves Ship Positions

United Spirit

Last reported at 2016-Mar-25 19:33 UTC. Time now 2016-Apr-29 02:00 UTC.
Position S 30°16' E 030°53'.
Warning: this ship's position is 34 days out of date.

Type: Cargo ship. MMSI: 636011280.

Date/timePositionNaut miles runAvg speedWind from/ knotsBaromVisibWave heightAir tempDewpointWater temp
2016-Mar-25 19:33S 30°16' E 030°53'1717.5
2016-Mar-25 18:33S 30°00' E 031°02'8 7.8
2016-Mar-25 17:33S 29°53' E 031°02'1 0.7
2016-Mar-25 16:22S 29°52' E 031°02'0 0.0
2016-Mar-25 15:31S 29°52' E 031°02'0 0.0
2016-Mar-25 14:31S 29°52' E 031°02'0 0.0
2016-Mar-25 13:28S 29°52' E 031°02'0 0.0
2016-Mar-25 12:31S 29°52' E 031°02'0 0.0
2016-Mar-25 11:31S 29°52' E 031°02'0 0.0
2016-Mar-25 10:28S 29°52' E 031°02'0 0.0
2016-Mar-25 09:31S 29°52' E 031°02'0 0.0
2016-Mar-25 08:31S 29°52' E 031°02'0 0.0
2016-Mar-25 07:28S 29°52' E 031°02'0 0.0
2016-Mar-25 06:31S 29°52' E 031°02'0 0.0
2016-Mar-25 05:31S 29°52' E 031°02'0 0.0
2016-Mar-25 04:31S 29°52' E 031°02'0 0.0
2016-Mar-25 03:28S 29°52' E 031°02'0 0.0
2016-Mar-25 02:31S 29°52' E 031°02'0 0.0
2016-Mar-25 01:31S 29°52' E 031°02'0 0.0
2016-Mar-25 00:31S 29°52' E 031°02'0 0.0
2016-Mar-24 23:31S 29°52' E 031°02'0 0.0
2016-Mar-24 22:31S 29°52' E 031°02'0 0.0
2016-Mar-24 21:31S 29°52' E 031°02'0 0.0
2016-Mar-24 20:31S 29°52' E 031°02'0 0.0
2016-Mar-24 19:31S 29°52' E 031°02'2 2.6
2016-Mar-24 18:34S 29°51' E 031°05'3 2.6
2016-Mar-24 17:33S 29°49' E 031°06'2 2.0
2016-Mar-24 16:34S 29°47' E 031°07'2 2.4
2016-Mar-24 15:34S 29°47' E 031°10'8 7.8
2016-Mar-24 14:34S 29°47' E 031°19'1312.7
2016-Mar-24 13:34S 29°44' E 031°33'1413.7
2016-Mar-24 12:33S 29°41' E 031°48'  
2016-Mar-20 18:05S 20°41' E 057°45'916.8
2016-Mar-20 17:33S 20°36' E 057°53'  
Track history (hours):
 
Tides and Currents Weather Stations Pressure Air Temp Water Temp Dewpoint Dewpoint Depression Visibility Wind Speed Wind Dir Waves Ship Positions

United Spirit

Last reported at 2016-Mar-25 19:33 UTC. Time now 2016-Apr-29 02:00 UTC.
Position S 30°16' E 030°53'.
Warning: this ship's position is 34 days out of date.

Type: Cargo ship. MMSI: 636011280.

Date/timePositionNaut miles runAvg speedWind from/ knotsBaromVisibWave heightAir tempDewpointWater temp
2016-Mar-25 19:33S 30°16' E 030°53'1717.5
2016-Mar-25 18:33S 30°00' E 031°02'8 7.8
2016-Mar-25 17:33S 29°53' E 031°02'1 0.7
2016-Mar-25 16:22S 29°52' E 031°02'0 0.0
2016-Mar-25 15:31S 29°52' E 031°02'0 0.0
2016-Mar-25 14:31S 29°52' E 031°02'0 0.0
2016-Mar-25 13:28S 29°52' E 031°02'0 0.0
2016-Mar-25 12:31S 29°52' E 031°02'0 0.0
2016-Mar-25 11:31S 29°52' E 031°02'0 0.0
2016-Mar-25 10:28S 29°52' E 031°02'0 0.0
2016-Mar-25 09:31S 29°52' E 031°02'0 0.0
2016-Mar-25 08:31S 29°52' E 031°02'0 0.0
2016-Mar-25 07:28S 29°52' E 031°02'0 0.0
2016-Mar-25 06:31S 29°52' E 031°02'0 0.0
2016-Mar-25 05:31S 29°52' E 031°02'0 0.0
2016-Mar-25 04:31S 29°52' E 031°02'0 0.0
2016-Mar-25 03:28S 29°52' E 031°02'0 0.0
2016-Mar-25 02:31S 29°52' E 031°02'0 0.0
2016-Mar-25 01:31S 29°52' E 031°02'0 0.0
2016-Mar-25 00:31S 29°52' E 031°02'0 0.0
2016-Mar-24 23:31S 29°52' E 031°02'0 0.0
2016-Mar-24 22:31S 29°52' E 031°02'0 0.0
2016-Mar-24 21:31S 29°52' E 031°02'0 0.0
2016-Mar-24 20:31S 29°52' E 031°02'0 0.0
2016-Mar-24 19:31S 29°52' E 031°02'2 2.6
2016-Mar-24 18:34S 29°51' E 031°05'3 2.6
2016-Mar-24 17:33S 29°49' E 031°06'2 2.0
2016-Mar-24 16:34S 29°47' E 031°07'2 2.4
2016-Mar-24 15:34S 29°47' E 031°10'8 7.8
2016-Mar-24 14:34S 29°47' E 031°19'1312.7
2016-Mar-24 13:34S 29°44' E 031°33'1413.7
2016-Mar-24 12:33S 29°41' E 031°48'  
2016-Mar-20 18:05S 20°41' E 057°45'916.8
2016-Mar-20 17:33S 20°36' E 057°53'  

Dump ship's entire track history